Aérodrome :
LOGIN :

S'inscrire | Disclaimer

   EN    FR    IT 

 










Légende :    VFR   VFR Marginal   IFR   IFR Intensif   IFR Très Intensif
Visi : 
Plafond : 
>= 8 km
>= 3000ft
5 à 8 km
1000 à 3000 ft
1500m à 5 km
500 à 1000 ft
800 à 1500m
200 à 500 ft
< 800m
< 200 ft
Symboles :   Orages  Brouillard  Fortes neiges  Fortes précipitations  Vent > 20 kt
SIGMETs :   Divers  Orages  Givrage  Turbulence  Onde Orograph.  Cendres Volcan.






- Altitude de l'aérodrome : 1367 ft
- Code IATA : FDH


EDNY - Friedrichshafen

DERNIER METAR :
  • 250220Z AUTO 04007KT 9999 // NCD 17/14 Q1013

METARs EXPIRÉS :
  • 250150Z AUTO 03006KT 9999 // NCD 17/14 Q1013
  • 250120Z AUTO 03005KT 9999 // NCD 18/14 Q1013
  • 250050Z AUTO 02006KT 9999 // NCD 18/14 Q1014
  • 250020Z AUTO 03008KT 9999 // NCD 18/14 Q1014
  • 242350Z AUTO 02008KT 9999 // NCD 18/14 Q1014
  • 242320Z AUTO 02007KT 9999 // NCD 19/14 Q1014
  • 242250Z AUTO 02007KT 9999 // NCD 19/14 Q1014
  • 242150Z AUTO 02009KT 9999 // NCD 20/14 Q1015
  • 242120Z AUTO 02009KT 9999 // NCD 20/14 Q1015

TAF TAF EDNY
Valide du 24 à 18h jusqu'au 25 à 03h UTC


241700Z 2418/2503 03013KT CAVOK
BECMG 2418/2420 02006KT



MET'MAP, la Météo Aéronautique d'un coup d'oeil ! - Copyright ORBIFLY Décembre 2007 - Disclaimer

ORBIFLY MET'MAP TEAM :

Programmation & Développement : Alexandra Zaïnal
Sur une idée originale de : Baudouin d'Aumeries
Soutien technique & logistique : Manuel Goepfert
Assistance : Marc-Olivier Méhu




SOURCES & CREDITS :

   NOAA